sensor_id;sensor_type;location;lat;lon;timestamp;pressure;altitude;pressure_sealevel;temperature
63220;BMP180;49320;52.512;13.448;2023-07-29T00:01:58;100391.00;;;25.50
63220;BMP180;49320;52.512;13.448;2023-07-29T00:04:25;100390.00;;;25.50
63220;BMP180;49320;52.512;13.448;2023-07-29T00:06:52;100383.00;;;25.50
63220;BMP180;49320;52.512;13.448;2023-07-29T00:09:19;100391.00;;;25.40
63220;BMP180;49320;52.512;13.448;2023-07-29T00:11:47;100383.00;;;25.40
63220;BMP180;49320;52.512;13.448;2023-07-29T00:14:14;100382.00;;;25.40
63220;BMP180;49320;52.512;13.448;2023-07-29T00:16:41;100385.00;;;25.30
63220;BMP180;49320;52.512;13.448;2023-07-29T00:19:09;100385.00;;;25.30
63220;BMP180;49320;52.512;13.448;2023-07-29T00:21:37;100382.00;;;25.30
63220;BMP180;49320;52.512;13.448;2023-07-29T00:24:04;100390.00;;;25.30
63220;BMP180;49320;52.512;13.448;2023-07-29T00:26:32;100384.00;;;25.20
63220;BMP180;49320;52.512;13.448;2023-07-29T00:28:59;100376.00;;;25.20
63220;BMP180;49320;52.512;13.448;2023-07-29T00:31:26;100380.00;;;25.20
63220;BMP180;49320;52.512;13.448;2023-07-29T00:33:53;100373.00;;;25.20
63220;BMP180;49320;52.512;13.448;2023-07-29T00:36:21;100377.00;;;25.10
63220;BMP180;49320;52.512;13.448;2023-07-29T00:38:48;100386.00;;;25.10
63220;BMP180;49320;52.512;13.448;2023-07-29T00:41:15;100378.00;;;25.10
63220;BMP180;49320;52.512;13.448;2023-07-29T00:43:42;100382.00;;;25.10
63220;BMP180;49320;52.512;13.448;2023-07-29T00:46:10;100385.00;;;25.00
63220;BMP180;49320;52.512;13.448;2023-07-29T00:48:40;100373.00;;;25.00
63220;BMP180;49320;52.512;13.448;2023-07-29T00:51:07;100387.00;;;25.00
63220;BMP180;49320;52.512;13.448;2023-07-29T00:53:35;100383.00;;;25.00
63220;BMP180;49320;52.512;13.448;2023-07-29T00:56:02;100379.00;;;24.90
63220;BMP180;49320;52.512;13.448;2023-07-29T00:58:29;100369.00;;;24.90
63220;BMP180;49320;52.512;13.448;2023-07-29T01:00:56;100374.00;;;24.90
63220;BMP180;49320;52.512;13.448;2023-07-29T01:03:23;100377.00;;;24.90
63220;BMP180;49320;52.512;13.448;2023-07-29T01:06:21;100373.00;;;24.90
63220;BMP180;49320;52.512;13.448;2023-07-29T01:09:01;100372.00;;;24.90
63220;BMP180;49320;52.512;13.448;2023-07-29T01:12:20;100361.00;;;24.90
63220;BMP180;49320;52.512;13.448;2023-07-29T01:15:01;100363.00;;;24.80
63220;BMP180;49320;52.512;13.448;2023-07-29T01:17:33;100351.00;;;24.80
63220;BMP180;49320;52.512;13.448;2023-07-29T01:20:11;100351.00;;;24.80
63220;BMP180;49320;52.512;13.448;2023-07-29T01:22:41;100349.00;;;24.70
63220;BMP180;49320;52.512;13.448;2023-07-29T01:25:09;100344.00;;;24.70
63220;BMP180;49320;52.512;13.448;2023-07-29T01:27:35;100332.00;;;24.70
63220;BMP180;49320;52.512;13.448;2023-07-29T01:30:03;100335.00;;;24.70
63220;BMP180;49320;52.512;13.448;2023-07-29T01:32:52;100335.00;;;24.70
63220;BMP180;49320;52.512;13.448;2023-07-29T01:36:02;100335.00;;;24.70
63220;BMP180;49320;52.512;13.448;2023-07-29T01:38:33;100335.00;;;24.70
63220;BMP180;49320;52.512;13.448;2023-07-29T01:41:02;100336.00;;;24.60
63220;BMP180;49320;52.512;13.448;2023-07-29T01:43:31;100340.00;;;24.60
63220;BMP180;49320;52.512;13.448;2023-07-29T01:45:58;100339.00;;;24.60
63220;BMP180;49320;52.512;13.448;2023-07-29T01:48:27;100341.00;;;24.60
63220;BMP180;49320;52.512;13.448;2023-07-29T01:50:57;100354.00;;;24.60
63220;BMP180;49320;52.512;13.448;2023-07-29T01:53:24;100356.00;;;24.60
63220;BMP180;49320;52.512;13.448;2023-07-29T01:55:52;100351.00;;;24.60
63220;BMP180;49320;52.512;13.448;2023-07-29T01:58:19;100358.00;;;24.50
63220;BMP180;49320;52.512;13.448;2023-07-29T02:00:46;100347.00;;;24.50
63220;BMP180;49320;52.512;13.448;2023-07-29T02:03:13;100349.00;;;24.50
63220;BMP180;49320;52.512;13.448;2023-07-29T02:05:41;100346.00;;;24.50
63220;BMP180;49320;52.512;13.448;2023-07-29T02:08:10;100355.00;;;24.50
63220;BMP180;49320;52.512;13.448;2023-07-29T02:10:38;100354.00;;;24.50
63220;BMP180;49320;52.512;13.448;2023-07-29T02:13:05;100352.00;;;24.50
63220;BMP180;49320;52.512;13.448;2023-07-29T02:15:32;100348.00;;;24.40
63220;BMP180;49320;52.512;13.448;2023-07-29T02:17:59;100353.00;;;24.40
63220;BMP180;49320;52.512;13.448;2023-07-29T02:20:28;100350.00;;;24.40
63220;BMP180;49320;52.512;13.448;2023-07-29T02:22:55;100345.00;;;24.40
63220;BMP180;49320;52.512;13.448;2023-07-29T02:25:22;100347.00;;;24.40
63220;BMP180;49320;52.512;13.448;2023-07-29T02:27:49;100347.00;;;24.40
63220;BMP180;49320;52.512;13.448;2023-07-29T02:30:16;100342.00;;;24.40
63220;BMP180;49320;52.512;13.448;2023-07-29T02:32:43;100352.00;;;24.40
63220;BMP180;49320;52.512;13.448;2023-07-29T02:35:11;100345.00;;;24.40
63220;BMP180;49320;52.512;13.448;2023-07-29T02:37:38;100345.00;;;24.40
63220;BMP180;49320;52.512;13.448;2023-07-29T02:40:06;100345.00;;;24.30
63220;BMP180;49320;52.512;13.448;2023-07-29T02:42:33;100341.00;;;24.30
63220;BMP180;49320;52.512;13.448;2023-07-29T02:45:00;100347.00;;;24.30
63220;BMP180;49320;52.512;13.448;2023-07-29T02:47:27;100349.00;;;24.30
63220;BMP180;49320;52.512;13.448;2023-07-29T02:49:54;100347.00;;;24.30
63220;BMP180;49320;52.512;13.448;2023-07-29T02:52:21;100343.00;;;24.30
63220;BMP180;49320;52.512;13.448;2023-07-29T02:54:49;100340.00;;;24.20
63220;BMP180;49320;52.512;13.448;2023-07-29T02:57:16;100340.00;;;24.30
63220;BMP180;49320;52.512;13.448;2023-07-29T02:59:44;100341.00;;;24.20
63220;BMP180;49320;52.512;13.448;2023-07-29T03:02:11;100344.00;;;24.20
63220;BMP180;49320;52.512;13.448;2023-07-29T03:04:39;100342.00;;;24.20
63220;BMP180;49320;52.512;13.448;2023-07-29T03:07:06;100341.00;;;24.20
63220;BMP180;49320;52.512;13.448;2023-07-29T03:09:33;100355.00;;;24.20
63220;BMP180;49320;52.512;13.448;2023-07-29T03:12:01;100356.00;;;24.20
63220;BMP180;49320;52.512;13.448;2023-07-29T03:14:27;100349.00;;;24.20
63220;BMP180;49320;52.512;13.448;2023-07-29T03:16:55;100345.00;;;24.20
63220;BMP180;49320;52.512;13.448;2023-07-29T03:19:22;100352.00;;;24.20
63220;BMP180;49320;52.512;13.448;2023-07-29T03:21:49;100350.00;;;24.20
63220;BMP180;49320;52.512;13.448;2023-07-29T03:24:17;100340.00;;;24.20
63220;BMP180;49320;52.512;13.448;2023-07-29T03:26:43;100340.00;;;24.10
63220;BMP180;49320;52.512;13.448;2023-07-29T03:29:12;100353.00;;;24.10
63220;BMP180;49320;52.512;13.448;2023-07-29T03:31:40;100350.00;;;24.10
63220;BMP180;49320;52.512;13.448;2023-07-29T03:34:07;100337.00;;;24.10
63220;BMP180;49320;52.512;13.448;2023-07-29T03:36:34;100333.00;;;24.10
63220;BMP180;49320;52.512;13.448;2023-07-29T03:39:02;100342.00;;;24.10
63220;BMP180;49320;52.512;13.448;2023-07-29T03:41:31;100333.00;;;24.10
63220;BMP180;49320;52.512;13.448;2023-07-29T03:43:58;100337.00;;;24.10
63220;BMP180;49320;52.512;13.448;2023-07-29T03:46:25;100330.00;;;24.10
63220;BMP180;49320;52.512;13.448;2023-07-29T03:48:53;100333.00;;;24.10
63220;BMP180;49320;52.512;13.448;2023-07-29T03:51:19;100326.00;;;24.10
63220;BMP180;49320;52.512;13.448;2023-07-29T03:53:47;100335.00;;;24.10
63220;BMP180;49320;52.512;13.448;2023-07-29T03:56:14;100335.00;;;24.10
63220;BMP180;49320;52.512;13.448;2023-07-29T03:58:42;100321.00;;;24.10
63220;BMP180;49320;52.512;13.448;2023-07-29T04:01:10;100324.00;;;24.10
63220;BMP180;49320;52.512;13.448;2023-07-29T04:03:37;100325.00;;;24.20
63220;BMP180;49320;52.512;13.448;2023-07-29T04:06:04;100337.00;;;24.20
63220;BMP180;49320;52.512;13.448;2023-07-29T04:08:32;100336.00;;;24.20
63220;BMP180;49320;52.512;13.448;2023-07-29T04:10:59;100317.00;;;24.20
63220;BMP180;49320;52.512;13.448;2023-07-29T04:13:26;100321.00;;;24.20
63220;BMP180;49320;52.512;13.448;2023-07-29T04:15:53;100331.00;;;24.30
63220;BMP180;49320;52.512;13.448;2023-07-29T04:18:20;100320.00;;;24.30
63220;BMP180;49320;52.512;13.448;2023-07-29T04:20:47;100324.00;;;24.40
63220;BMP180;49320;52.512;13.448;2023-07-29T04:23:14;100313.00;;;24.40
63220;BMP180;49320;52.512;13.448;2023-07-29T04:25:41;100312.00;;;24.40
63220;BMP180;49320;52.512;13.448;2023-07-29T04:28:08;100317.00;;;24.50
63220;BMP180;49320;52.512;13.448;2023-07-29T04:30:35;100308.00;;;24.50
63220;BMP180;49320;52.512;13.448;2023-07-29T04:33:03;100300.00;;;24.60
63220;BMP180;49320;52.512;13.448;2023-07-29T04:35:30;100317.00;;;24.60
63220;BMP180;49320;52.512;13.448;2023-07-29T04:37:57;100315.00;;;24.70
63220;BMP180;49320;52.512;13.448;2023-07-29T04:40:24;100318.00;;;24.80
63220;BMP180;49320;52.512;13.448;2023-07-29T04:42:51;100318.00;;;24.90
63220;BMP180;49320;52.512;13.448;2023-07-29T04:45:18;100313.00;;;25.00
63220;BMP180;49320;52.512;13.448;2023-07-29T04:47:46;100330.00;;;25.10
63220;BMP180;49320;52.512;13.448;2023-07-29T04:50:13;100322.00;;;25.10
63220;BMP180;49320;52.512;13.448;2023-07-29T04:52:40;100332.00;;;25.20
63220;BMP180;49320;52.512;13.448;2023-07-29T04:55:07;100318.00;;;25.30
63220;BMP180;49320;52.512;13.448;2023-07-29T04:57:34;100324.00;;;25.30
63220;BMP180;49320;52.512;13.448;2023-07-29T05:00:02;100316.00;;;25.40
63220;BMP180;49320;52.512;13.448;2023-07-29T05:02:29;100318.00;;;25.40
63220;BMP180;49320;52.512;13.448;2023-07-29T05:04:56;100321.00;;;25.50
63220;BMP180;49320;52.512;13.448;2023-07-29T05:07:23;100317.00;;;25.50
63220;BMP180;49320;52.512;13.448;2023-07-29T05:09:50;100323.00;;;25.60
63220;BMP180;49320;52.512;13.448;2023-07-29T05:12:17;100317.00;;;25.60
63220;BMP180;49320;52.512;13.448;2023-07-29T05:14:43;100315.00;;;25.70
63220;BMP180;49320;52.512;13.448;2023-07-29T05:17:11;100320.00;;;25.80
63220;BMP180;49320;52.512;13.448;2023-07-29T05:19:38;100321.00;;;25.90
63220;BMP180;49320;52.512;13.448;2023-07-29T05:22:05;100320.00;;;26.00
63220;BMP180;49320;52.512;13.448;2023-07-29T05:24:32;100314.00;;;26.10
63220;BMP180;49320;52.512;13.448;2023-07-29T05:27:00;100304.00;;;26.30
63220;BMP180;49320;52.512;13.448;2023-07-29T05:29:27;100314.00;;;26.50
63220;BMP180;49320;52.512;13.448;2023-07-29T05:31:54;100306.00;;;26.80
63220;BMP180;49320;52.512;13.448;2023-07-29T05:34:21;100308.00;;;27.10
63220;BMP180;49320;52.512;13.448;2023-07-29T05:36:48;100313.00;;;27.40
63220;BMP180;49320;52.512;13.448;2023-07-29T05:39:15;100313.00;;;27.70
63220;BMP180;49320;52.512;13.448;2023-07-29T05:41:42;100318.00;;;27.90
63220;BMP180;49320;52.512;13.448;2023-07-29T05:44:09;100322.00;;;28.10
63220;BMP180;49320;52.512;13.448;2023-07-29T05:46:37;100330.00;;;28.10
63220;BMP180;49320;52.512;13.448;2023-07-29T05:49:04;100326.00;;;28.20
63220;BMP180;49320;52.512;13.448;2023-07-29T05:51:31;100323.00;;;28.20
63220;BMP180;49320;52.512;13.448;2023-07-29T05:53:59;100318.00;;;28.20
63220;BMP180;49320;52.512;13.448;2023-07-29T05:56:26;100321.00;;;28.20
63220;BMP180;49320;52.512;13.448;2023-07-29T05:58:54;100334.00;;;28.30
63220;BMP180;49320;52.512;13.448;2023-07-29T06:01:21;100315.00;;;28.20
63220;BMP180;49320;52.512;13.448;2023-07-29T06:03:49;100308.00;;;28.20
63220;BMP180;49320;52.512;13.448;2023-07-29T06:06:16;100306.00;;;28.30
63220;BMP180;49320;52.512;13.448;2023-07-29T06:08:43;100299.00;;;28.30
63220;BMP180;49320;52.512;13.448;2023-07-29T06:11:10;100293.00;;;28.30
63220;BMP180;49320;52.512;13.448;2023-07-29T06:13:37;100295.00;;;28.40
63220;BMP180;49320;52.512;13.448;2023-07-29T06:16:05;100282.00;;;28.50
63220;BMP180;49320;52.512;13.448;2023-07-29T06:18:32;100278.00;;;28.50
63220;BMP180;49320;52.512;13.448;2023-07-29T06:20:59;100283.00;;;28.60
63220;BMP180;49320;52.512;13.448;2023-07-29T06:23:26;100279.00;;;28.60
63220;BMP180;49320;52.512;13.448;2023-07-29T06:25:53;100272.00;;;28.60
63220;BMP180;49320;52.512;13.448;2023-07-29T06:28:19;100284.00;;;28.60
63220;BMP180;49320;52.512;13.448;2023-07-29T06:30:47;100285.00;;;28.60
63220;BMP180;49320;52.512;13.448;2023-07-29T06:33:14;100288.00;;;28.70
63220;BMP180;49320;52.512;13.448;2023-07-29T06:35:41;100285.00;;;28.80
63220;BMP180;49320;52.512;13.448;2023-07-29T06:38:09;100277.00;;;28.90
63220;BMP180;49320;52.512;13.448;2023-07-29T06:40:35;100288.00;;;29.00
63220;BMP180;49320;52.512;13.448;2023-07-29T06:43:03;100292.00;;;29.10
63220;BMP180;49320;52.512;13.448;2023-07-29T06:45:30;100293.00;;;29.10
63220;BMP180;49320;52.512;13.448;2023-07-29T06:47:57;100294.00;;;29.10
63220;BMP180;49320;52.512;13.448;2023-07-29T06:50:24;100295.00;;;29.10
63220;BMP180;49320;52.512;13.448;2023-07-29T06:52:51;100294.00;;;29.10
63220;BMP180;49320;52.512;13.448;2023-07-29T06:55:19;100303.00;;;29.20
63220;BMP180;49320;52.512;13.448;2023-07-29T06:57:46;100304.00;;;29.20
63220;BMP180;49320;52.512;13.448;2023-07-29T07:00:13;100299.00;;;29.30
63220;BMP180;49320;52.512;13.448;2023-07-29T07:02:40;100309.00;;;29.40
63220;BMP180;49320;52.512;13.448;2023-07-29T07:05:07;100308.00;;;29.50
63220;BMP180;49320;52.512;13.448;2023-07-29T07:07:34;100312.00;;;29.60
63220;BMP180;49320;52.512;13.448;2023-07-29T07:10:02;100313.00;;;29.60
63220;BMP180;49320;52.512;13.448;2023-07-29T07:12:29;100306.00;;;29.70
63220;BMP180;49320;52.512;13.448;2023-07-29T07:14:56;100311.00;;;29.70
63220;BMP180;49320;52.512;13.448;2023-07-29T07:17:23;100305.00;;;29.80
63220;BMP180;49320;52.512;13.448;2023-07-29T07:19:50;100316.00;;;29.80
63220;BMP180;49320;52.512;13.448;2023-07-29T07:22:18;100308.00;;;29.80
63220;BMP180;49320;52.512;13.448;2023-07-29T07:24:45;100313.00;;;29.80
63220;BMP180;49320;52.512;13.448;2023-07-29T07:27:12;100322.00;;;29.90
63220;BMP180;49320;52.512;13.448;2023-07-29T07:29:39;100307.00;;;30.00
63220;BMP180;49320;52.512;13.448;2023-07-29T07:32:06;100303.00;;;30.00
63220;BMP180;49320;52.512;13.448;2023-07-29T07:34:33;100310.00;;;30.10
63220;BMP180;49320;52.512;13.448;2023-07-29T07:37:01;100310.00;;;30.20
63220;BMP180;49320;52.512;13.448;2023-07-29T07:39:28;100312.00;;;30.20
63220;BMP180;49320;52.512;13.448;2023-07-29T07:41:55;100307.00;;;30.30
63220;BMP180;49320;52.512;13.448;2023-07-29T07:44:21;100294.00;;;30.30
63220;BMP180;49320;52.512;13.448;2023-07-29T07:46:49;100303.00;;;30.20
63220;BMP180;49320;52.512;13.448;2023-07-29T07:49:16;100296.00;;;30.20
63220;BMP180;49320;52.512;13.448;2023-07-29T07:51:44;100296.00;;;30.30
63220;BMP180;49320;52.512;13.448;2023-07-29T07:54:11;100288.00;;;30.30
63220;BMP180;49320;52.512;13.448;2023-07-29T07:56:38;100289.00;;;30.40
63220;BMP180;49320;52.512;13.448;2023-07-29T07:59:06;100282.00;;;30.40
63220;BMP180;49320;52.512;13.448;2023-07-29T08:01:37;100289.00;;;30.40
63220;BMP180;49320;52.512;13.448;2023-07-29T08:04:04;100277.00;;;30.50
63220;BMP180;49320;52.512;13.448;2023-07-29T08:06:33;100283.00;;;30.60
63220;BMP180;49320;52.512;13.448;2023-07-29T08:09:01;100283.00;;;30.60
63220;BMP180;49320;52.512;13.448;2023-07-29T08:11:28;100274.00;;;30.60
63220;BMP180;49320;52.512;13.448;2023-07-29T08:13:55;100288.00;;;30.60
63220;BMP180;49320;52.512;13.448;2023-07-29T08:16:22;100282.00;;;30.60
63220;BMP180;49320;52.512;13.448;2023-07-29T08:18:49;100276.00;;;30.60
63220;BMP180;49320;52.512;13.448;2023-07-29T08:21:16;100282.00;;;30.60
63220;BMP180;49320;52.512;13.448;2023-07-29T08:23:43;100287.00;;;30.60
63220;BMP180;49320;52.512;13.448;2023-07-29T08:26:11;100273.00;;;30.60
63220;BMP180;49320;52.512;13.448;2023-07-29T08:28:39;100283.00;;;30.70
63220;BMP180;49320;52.512;13.448;2023-07-29T08:31:07;100275.00;;;30.70
63220;BMP180;49320;52.512;13.448;2023-07-29T08:33:34;100279.00;;;30.80
63220;BMP180;49320;52.512;13.448;2023-07-29T08:36:02;100274.00;;;31.00
63220;BMP180;49320;52.512;13.448;2023-07-29T08:38:30;100270.00;;;31.20
63220;BMP180;49320;52.512;13.448;2023-07-29T08:41:19;100269.00;;;31.40
63220;BMP180;49320;52.512;13.448;2023-07-29T08:43:58;100267.00;;;31.50
63220;BMP180;49320;52.512;13.448;2023-07-29T08:46:26;100271.00;;;31.60
63220;BMP180;49320;52.512;13.448;2023-07-29T08:48:55;100275.00;;;31.70
63220;BMP180;49320;52.512;13.448;2023-07-29T08:51:23;100266.00;;;31.90
63220;BMP180;49320;52.512;13.448;2023-07-29T08:53:52;100263.00;;;31.90
63220;BMP180;49320;52.512;13.448;2023-07-29T08:56:19;100272.00;;;32.00
63220;BMP180;49320;52.512;13.448;2023-07-29T08:58:47;100259.00;;;32.00
63220;BMP180;49320;52.512;13.448;2023-07-29T09:01:15;100258.00;;;32.00
63220;BMP180;49320;52.512;13.448;2023-07-29T09:03:43;100269.00;;;32.00
63220;BMP180;49320;52.512;13.448;2023-07-29T09:06:10;100267.00;;;32.00
63220;BMP180;49320;52.512;13.448;2023-07-29T09:08:38;100258.00;;;32.10
63220;BMP180;49320;52.512;13.448;2023-07-29T09:11:06;100263.00;;;32.20
63220;BMP180;49320;52.512;13.448;2023-07-29T09:13:34;100265.00;;;32.30
63220;BMP180;49320;52.512;13.448;2023-07-29T09:16:01;100277.00;;;32.40
63220;BMP180;49320;52.512;13.448;2023-07-29T09:18:28;100262.00;;;32.60
63220;BMP180;49320;52.512;13.448;2023-07-29T09:20:59;100262.00;;;32.70
63220;BMP180;49320;52.512;13.448;2023-07-29T09:23:40;100247.00;;;32.90
63220;BMP180;49320;52.512;13.448;2023-07-29T09:26:07;100249.00;;;32.90
63220;BMP180;49320;52.512;13.448;2023-07-29T09:28:37;100245.00;;;33.10
63220;BMP180;49320;52.512;13.448;2023-07-29T09:31:05;100247.00;;;33.10
63220;BMP180;49320;52.512;13.448;2023-07-29T09:33:36;100242.00;;;33.20
63220;BMP180;49320;52.512;13.448;2023-07-29T09:36:10;100239.00;;;33.30
63220;BMP180;49320;52.512;13.448;2023-07-29T09:38:37;100244.00;;;33.40
63220;BMP180;49320;52.512;13.448;2023-07-29T09:41:05;100233.00;;;33.50
63220;BMP180;49320;52.512;13.448;2023-07-29T09:43:33;100227.00;;;33.50
63220;BMP180;49320;52.512;13.448;2023-07-29T09:46:05;100230.00;;;33.60
63220;BMP180;49320;52.512;13.448;2023-07-29T09:48:37;100227.00;;;33.70
63220;BMP180;49320;52.512;13.448;2023-07-29T09:51:14;100237.00;;;33.80
63220;BMP180;49320;52.512;13.448;2023-07-29T09:53:45;100230.00;;;33.80
63220;BMP180;49320;52.512;13.448;2023-07-29T09:56:14;100224.00;;;33.80
63220;BMP180;49320;52.512;13.448;2023-07-29T09:58:44;100213.00;;;33.80
63220;BMP180;49320;52.512;13.448;2023-07-29T10:01:13;100221.00;;;33.70
63220;BMP180;49320;52.512;13.448;2023-07-29T10:03:41;100208.00;;;33.70
63220;BMP180;49320;52.512;13.448;2023-07-29T10:06:09;100216.00;;;33.80
63220;BMP180;49320;52.512;13.448;2023-07-29T10:08:37;100211.00;;;33.90
63220;BMP180;49320;52.512;13.448;2023-07-29T10:11:07;100215.00;;;33.90
63220;BMP180;49320;52.512;13.448;2023-07-29T10:13:36;100217.00;;;34.00
63220;BMP180;49320;52.512;13.448;2023-07-29T10:16:04;100203.00;;;34.00
63220;BMP180;49320;52.512;13.448;2023-07-29T10:18:33;100191.00;;;34.10
63220;BMP180;49320;52.512;13.448;2023-07-29T10:21:01;100193.00;;;34.10
63220;BMP180;49320;52.512;13.448;2023-07-29T10:23:38;100197.00;;;34.20
63220;BMP180;49320;52.512;13.448;2023-07-29T10:26:10;100202.00;;;34.20
63220;BMP180;49320;52.512;13.448;2023-07-29T10:28:41;100195.00;;;34.30
63220;BMP180;49320;52.512;13.448;2023-07-29T10:31:12;100187.00;;;34.30
63220;BMP180;49320;52.512;13.448;2023-07-29T10:33:39;100183.00;;;34.30
63220;BMP180;49320;52.512;13.448;2023-07-29T10:36:07;100182.00;;;34.20
63220;BMP180;49320;52.512;13.448;2023-07-29T10:38:35;100190.00;;;34.20
63220;BMP180;49320;52.512;13.448;2023-07-29T10:41:02;100174.00;;;34.20
63220;BMP180;49320;52.512;13.448;2023-07-29T10:43:37;100173.00;;;34.20
63220;BMP180;49320;52.512;13.448;2023-07-29T10:46:22;100175.00;;;34.20
63220;BMP180;49320;52.512;13.448;2023-07-29T10:48:56;100165.00;;;34.20
63220;BMP180;49320;52.512;13.448;2023-07-29T10:51:34;100149.00;;;34.10
63220;BMP180;49320;52.512;13.448;2023-07-29T10:54:11;100139.00;;;34.10
63220;BMP180;49320;52.512;13.448;2023-07-29T10:56:46;100144.00;;;34.10
63220;BMP180;49320;52.512;13.448;2023-07-29T11:01:58;100157.00;;;34.20
63220;BMP180;49320;52.512;13.448;2023-07-29T11:04:30;100158.00;;;34.10
63220;BMP180;49320;52.512;13.448;2023-07-29T11:10:03;100153.00;;;33.90
63220;BMP180;49320;52.512;13.448;2023-07-29T11:12:50;100148.00;;;33.80
63220;BMP180;49320;52.512;13.448;2023-07-29T11:15:24;100147.00;;;33.70
63220;BMP180;49320;52.512;13.448;2023-07-29T11:17:53;100161.00;;;33.50
63220;BMP180;49320;52.512;13.448;2023-07-29T11:20:33;100206.00;;;33.40
63220;BMP180;49320;52.512;13.448;2023-07-29T11:23:02;100220.00;;;33.00
63220;BMP180;49320;52.512;13.448;2023-07-29T11:25:31;100234.00;;;32.40
63220;BMP180;49320;52.512;13.448;2023-07-29T11:28:00;100237.00;;;31.90
63220;BMP180;49320;52.512;13.448;2023-07-29T11:30:32;100221.00;;;31.30
63220;BMP180;49320;52.512;13.448;2023-07-29T11:33:01;100218.00;;;30.80
63220;BMP180;49320;52.512;13.448;2023-07-29T11:35:28;100215.00;;;30.50
63220;BMP180;49320;52.512;13.448;2023-07-29T11:37:55;100208.00;;;30.20
63220;BMP180;49320;52.512;13.448;2023-07-29T11:40:24;100197.00;;;29.90
63220;BMP180;49320;52.512;13.448;2023-07-29T11:42:52;100201.00;;;29.70
63220;BMP180;49320;52.512;13.448;2023-07-29T11:45:21;100193.00;;;29.50
63220;BMP180;49320;52.512;13.448;2023-07-29T11:47:55;100198.00;;;29.30
63220;BMP180;49320;52.512;13.448;2023-07-29T11:50:23;100191.00;;;29.20
63220;BMP180;49320;52.512;13.448;2023-07-29T11:52:50;100186.00;;;29.20
63220;BMP180;49320;52.512;13.448;2023-07-29T11:55:17;100182.00;;;29.10
63220;BMP180;49320;52.512;13.448;2023-07-29T11:57:51;100179.00;;;29.10
63220;BMP180;49320;52.512;13.448;2023-07-29T12:00:19;100178.00;;;29.00
63220;BMP180;49320;52.512;13.448;2023-07-29T12:02:49;100171.00;;;28.90
63220;BMP180;49320;52.512;13.448;2023-07-29T12:05:18;100161.00;;;28.90
63220;BMP180;49320;52.512;13.448;2023-07-29T12:07:47;100158.00;;;28.90
63220;BMP180;49320;52.512;13.448;2023-07-29T12:10:15;100169.00;;;28.90
63220;BMP180;49320;52.512;13.448;2023-07-29T12:12:47;100168.00;;;28.90
63220;BMP180;49320;52.512;13.448;2023-07-29T12:15:24;100171.00;;;28.90
63220;BMP180;49320;52.512;13.448;2023-07-29T12:17:54;100173.00;;;28.90
63220;BMP180;49320;52.512;13.448;2023-07-29T12:20:25;100177.00;;;28.90
63220;BMP180;49320;52.512;13.448;2023-07-29T12:22:57;100181.00;;;29.00
63220;BMP180;49320;52.512;13.448;2023-07-29T12:25:26;100182.00;;;29.00
63220;BMP180;49320;52.512;13.448;2023-07-29T12:27:54;100187.00;;;29.00
63220;BMP180;49320;52.512;13.448;2023-07-29T12:30:22;100171.00;;;29.10
63220;BMP180;49320;52.512;13.448;2023-07-29T12:32:50;100169.00;;;29.10
63220;BMP180;49320;52.512;13.448;2023-07-29T12:35:17;100174.00;;;29.10
63220;BMP180;49320;52.512;13.448;2023-07-29T12:37:44;100185.00;;;29.20
63220;BMP180;49320;52.512;13.448;2023-07-29T12:40:22;100189.00;;;29.20
63220;BMP180;49320;52.512;13.448;2023-07-29T12:42:51;100180.00;;;29.30
63220;BMP180;49320;52.512;13.448;2023-07-29T12:45:18;100175.00;;;29.40
63220;BMP180;49320;52.512;13.448;2023-07-29T12:47:45;100163.00;;;29.40
63220;BMP180;49320;52.512;13.448;2023-07-29T12:50:13;100156.00;;;29.50
63220;BMP180;49320;52.512;13.448;2023-07-29T12:52:39;100155.00;;;29.70
63220;BMP180;49320;52.512;13.448;2023-07-29T12:55:07;100158.00;;;29.80
63220;BMP180;49320;52.512;13.448;2023-07-29T12:57:36;100143.00;;;30.00
63220;BMP180;49320;52.512;13.448;2023-07-29T13:00:03;100138.00;;;30.20
63220;BMP180;49320;52.512;13.448;2023-07-29T13:02:31;100144.00;;;30.40
63220;BMP180;49320;52.512;13.448;2023-07-29T13:04:59;100149.00;;;30.50
63220;BMP180;49320;52.512;13.448;2023-07-29T13:07:26;100144.00;;;30.60
63220;BMP180;49320;52.512;13.448;2023-07-29T13:09:53;100146.00;;;30.60
63220;BMP180;49320;52.512;13.448;2023-07-29T13:12:20;100146.00;;;30.70
63220;BMP180;49320;52.512;13.448;2023-07-29T13:14:47;100151.00;;;30.80
63220;BMP180;49320;52.512;13.448;2023-07-29T13:17:14;100162.00;;;30.90
63220;BMP180;49320;52.512;13.448;2023-07-29T13:19:41;100164.00;;;30.90
63220;BMP180;49320;52.512;13.448;2023-07-29T13:22:09;100165.00;;;30.90
63220;BMP180;49320;52.512;13.448;2023-07-29T13:24:37;100175.00;;;30.90
63220;BMP180;49320;52.512;13.448;2023-07-29T13:27:05;100175.00;;;30.80
63220;BMP180;49320;52.512;13.448;2023-07-29T13:29:33;100170.00;;;30.80
63220;BMP180;49320;52.512;13.448;2023-07-29T13:32:00;100172.00;;;30.70
63220;BMP180;49320;52.512;13.448;2023-07-29T13:34:27;100167.00;;;30.70
63220;BMP180;49320;52.512;13.448;2023-07-29T13:36:54;100174.00;;;30.70
63220;BMP180;49320;52.512;13.448;2023-07-29T13:39:21;100174.00;;;30.80
63220;BMP180;49320;52.512;13.448;2023-07-29T13:41:49;100160.00;;;30.90
63220;BMP180;49320;52.512;13.448;2023-07-29T13:44:16;100152.00;;;31.00
63220;BMP180;49320;52.512;13.448;2023-07-29T13:46:43;100150.00;;;31.10
63220;BMP180;49320;52.512;13.448;2023-07-29T13:49:10;100152.00;;;31.20
63220;BMP180;49320;52.512;13.448;2023-07-29T13:51:38;100146.00;;;31.30
63220;BMP180;49320;52.512;13.448;2023-07-29T13:54:05;100141.00;;;31.40
63220;BMP180;49320;52.512;13.448;2023-07-29T13:56:32;100139.00;;;31.50
63220;BMP180;49320;52.512;13.448;2023-07-29T13:59:00;100143.00;;;31.60